This is the latest recevied weather packets stored in our database for station/object WX5RP. If no packets are shown the sender has not sent any weather packets the latest 1 day(s).
| Time | Temp. | Humidity | Pressure | Rain* | Wind** | Luminosity | Snow |
|---|---|---|---|---|---|---|---|
| 1778112917 | 25.56° C | 23% | 1017.8 hPa | 0 mm | - | 450 W/m² | - |
| 1778111717 | 26.11° C | 21% | 1017.5 hPa | 0 mm | - | 547 W/m² | - |
| 1778107517 | 26.11° C | 22% | 1017.8 hPa | 0 mm | - | 740 W/m² | - |
| 1778106917 | 26.67° C | 24% | 1018 hPa | 0 mm | - | 759 W/m² | - |
| 1778103917 | 25.56° C | 27% | 1018.8 hPa | 0 mm | - | 864 W/m² | - |
| 1778102717 | 25.56° C | 28% | 1019.1 hPa | 0 mm | - | 68 W/m² | - |
| 1778102117 | 25.56° C | 26% | 1019.1 hPa | 0 mm | - | 914 W/m² | - |
| 1778100917 | 25° C | 24% | 1019.3 hPa | 0 mm | - | 937 W/m² | - |
| 1778097316 | 24.44° C | 23% | 1019.3 hPa | 0 mm | - | 971 W/m² | - |
| 1778095516 | 23.33° C | 27% | 1020.1 hPa | 0 mm | - | 965 W/m² | - |
| 1778094316 | 23.33° C | 27% | 1019.9 hPa | 0 mm | - | 956 W/m² | - |
| 1778092516 | 22.22° C | 31% | 1020.3 hPa | 0 mm | - | 920 W/m² | - |
| 1778090116 | 20.56° C | 37% | 1020.6 hPa | 0 mm | - | 864 W/m² | - |
| 1778089516 | 20.56° C | 37% | 1020.9 hPa | 0 mm | - | 845 W/m² | - |
| 1778088317 | 20° C | 40% | 1022.1 hPa | 0 mm | - | 804 W/m² | - |
| 1778086516 | 18.89° C | 42% | 1021 hPa | 0 mm | - | 734 W/m² | - |
| 1778081717 | 14.44° C | 55% | 1021.1 hPa | 0 mm | - | 496 W/m² | - |
| 1778080517 | 12.78° C | 58% | 1021.4 hPa | 0 mm | - | 427 W/m² | - |
| 1778079918 | 12.22° C | 62% | 1020.8 hPa | 0 mm | - | 393 W/m² | - |
| 1778079317 | 10.56° C | 72% | 1021.1 hPa | 0 mm | - | 357 W/m² | - |
| 1778078719 | 8.89° C | 76% | 1020.7 hPa | 0 mm | - | 321 W/m² | - |
| 1778076917 | 6.67° C | 80% | 1020.6 hPa | 0 mm | - | 208 W/m² | - |
| 1778076317 | 5.56° C | 83% | 1020.3 hPa | 0 mm | - | 172 W/m² | - |
| 1778075717 | 3.89° C | 84% | 1020.5 hPa | 0 mm | - | 131 W/m² | - |
| 1778072717 | 1.11° C | 83% | 1019.6 hPa | 0 mm | - | 12 W/m² | - |
* Rain latest hour (hover to see other rain measurements)
** Current wind speed in m/s (hover to see current wind gust speed)